sensor_id;sensor_type;location;lat;lon;timestamp;P1;durP1;ratioP1;P2;durP2;ratioP2
50851;SDS011;43953;45.508;-122.806;2022-11-02T00:00:12;3.85;;;2.50;;
50851;SDS011;43953;45.508;-122.806;2022-11-02T00:00:45;3.92;;;2.72;;
50851;SDS011;43953;45.508;-122.806;2022-11-02T00:01:18;3.83;;;2.88;;
50851;SDS011;43953;45.508;-122.806;2022-11-02T00:01:54;4.22;;;2.83;;
50851;SDS011;43953;45.508;-122.806;2022-11-02T00:02:25;3.25;;;2.53;;
50851;SDS011;43953;45.508;-122.806;2022-11-02T00:02:57;4.70;;;2.80;;
50851;SDS011;43953;45.508;-122.806;2022-11-02T00:03:29;2.90;;;2.42;;
50851;SDS011;43953;45.508;-122.806;2022-11-02T00:04:01;3.95;;;2.60;;
50851;SDS011;43953;45.508;-122.806;2022-11-02T00:04:32;4.97;;;2.75;;
50851;SDS011;43953;45.508;-122.806;2022-11-02T00:05:04;4.32;;;2.13;;
50851;SDS011;43953;45.508;-122.806;2022-11-02T00:05:36;2.90;;;2.45;;
50851;SDS011;43953;45.508;-122.806;2022-11-02T00:06:08;3.30;;;2.42;;
50851;SDS011;43953;45.508;-122.806;2022-11-02T00:06:39;3.58;;;2.60;;
50851;SDS011;43953;45.508;-122.806;2022-11-02T00:07:11;3.95;;;2.65;;
50851;SDS011;43953;45.508;-122.806;2022-11-02T00:07:43;3.10;;;2.45;;
50851;SDS011;43953;45.508;-122.806;2022-11-02T00:08:15;3.75;;;2.42;;
50851;SDS011;43953;45.508;-122.806;2022-11-02T00:08:46;4.45;;;2.70;;
50851;SDS011;43953;45.508;-122.806;2022-11-02T00:09:18;4.15;;;2.50;;
50851;SDS011;43953;45.508;-122.806;2022-11-02T00:09:50;3.05;;;2.83;;
50851;SDS011;43953;45.508;-122.806;2022-11-02T00:10:22;3.50;;;2.65;;
50851;SDS011;43953;45.508;-122.806;2022-11-02T00:10:54;3.78;;;2.90;;
50851;SDS011;43953;45.508;-122.806;2022-11-02T00:11:26;3.00;;;2.70;;
50851;SDS011;43953;45.508;-122.806;2022-11-02T00:11:58;3.75;;;2.75;;
50851;SDS011;43953;45.508;-122.806;2022-11-02T00:12:29;4.15;;;2.75;;
50851;SDS011;43953;45.508;-122.806;2022-11-02T00:13:01;3.17;;;2.60;;
50851;SDS011;43953;45.508;-122.806;2022-11-02T00:13:33;2.80;;;2.50;;
50851;SDS011;43953;45.508;-122.806;2022-11-02T00:14:05;4.47;;;2.53;;
50851;SDS011;43953;45.508;-122.806;2022-11-02T00:14:37;3.95;;;3.00;;
50851;SDS011;43953;45.508;-122.806;2022-11-02T00:15:08;2.97;;;2.65;;
50851;SDS011;43953;45.508;-122.806;2022-11-02T00:15:41;4.22;;;2.90;;
50851;SDS011;43953;45.508;-122.806;2022-11-02T00:16:12;3.80;;;2.80;;
50851;SDS011;43953;45.508;-122.806;2022-11-02T00:16:48;4.22;;;2.70;;
50851;SDS011;43953;45.508;-122.806;2022-11-02T00:17:20;3.58;;;2.88;;
50851;SDS011;43953;45.508;-122.806;2022-11-02T00:17:52;4.10;;;2.90;;
50851;SDS011;43953;45.508;-122.806;2022-11-02T00:18:26;4.55;;;3.00;;
50851;SDS011;43953;45.508;-122.806;2022-11-02T00:18:59;4.50;;;3.13;;
50851;SDS011;43953;45.508;-122.806;2022-11-02T00:19:33;4.57;;;3.10;;
50851;SDS011;43953;45.508;-122.806;2022-11-02T00:20:05;4.45;;;2.80;;
50851;SDS011;43953;45.508;-122.806;2022-11-02T00:20:39;3.40;;;3.00;;
50851;SDS011;43953;45.508;-122.806;2022-11-02T00:21:13;4.72;;;3.03;;
50851;SDS011;43953;45.508;-122.806;2022-11-02T00:21:48;3.83;;;2.70;;
50851;SDS011;43953;45.508;-122.806;2022-11-02T00:22:20;6.15;;;3.15;;
50851;SDS011;43953;45.508;-122.806;2022-11-02T00:22:54;3.30;;;3.00;;
50851;SDS011;43953;45.508;-122.806;2022-11-02T00:23:28;3.85;;;2.88;;
50851;SDS011;43953;45.508;-122.806;2022-11-02T00:24:01;4.22;;;3.05;;
50851;SDS011;43953;45.508;-122.806;2022-11-02T00:24:35;3.85;;;3.13;;
50851;SDS011;43953;45.508;-122.806;2022-11-02T00:25:07;4.18;;;3.03;;
50851;SDS011;43953;45.508;-122.806;2022-11-02T00:25:46;4.95;;;3.17;;
50851;SDS011;43953;45.508;-122.806;2022-11-02T00:26:20;6.20;;;3.67;;
50851;SDS011;43953;45.508;-122.806;2022-11-02T00:26:52;4.22;;;2.97;;
50851;SDS011;43953;45.508;-122.806;2022-11-02T00:27:24;4.25;;;2.78;;
50851;SDS011;43953;45.508;-122.806;2022-11-02T00:27:56;3.17;;;2.65;;
50851;SDS011;43953;45.508;-122.806;2022-11-02T00:28:29;3.85;;;2.90;;
50851;SDS011;43953;45.508;-122.806;2022-11-02T00:29:02;4.60;;;2.83;;
50851;SDS011;43953;45.508;-122.806;2022-11-02T00:29:37;3.47;;;2.90;;
50851;SDS011;43953;45.508;-122.806;2022-11-02T00:30:09;3.95;;;2.70;;
50851;SDS011;43953;45.508;-122.806;2022-11-02T00:30:41;5.20;;;3.00;;
50851;SDS011;43953;45.508;-122.806;2022-11-02T00:31:13;3.97;;;2.88;;
50851;SDS011;43953;45.508;-122.806;2022-11-02T00:31:45;3.95;;;3.08;;
50851;SDS011;43953;45.508;-122.806;2022-11-02T00:32:17;4.47;;;2.97;;
50851;SDS011;43953;45.508;-122.806;2022-11-02T00:32:49;3.80;;;2.88;;
50851;SDS011;43953;45.508;-122.806;2022-11-02T00:33:21;4.68;;;2.90;;
50851;SDS011;43953;45.508;-122.806;2022-11-02T00:33:53;4.32;;;3.00;;
50851;SDS011;43953;45.508;-122.806;2022-11-02T00:34:25;3.53;;;3.10;;
50851;SDS011;43953;45.508;-122.806;2022-11-02T00:34:56;4.05;;;3.10;;
50851;SDS011;43953;45.508;-122.806;2022-11-02T00:35:28;4.22;;;3.10;;
50851;SDS011;43953;45.508;-122.806;2022-11-02T00:36:00;3.38;;;2.72;;
50851;SDS011;43953;45.508;-122.806;2022-11-02T00:36:32;3.50;;;3.00;;
50851;SDS011;43953;45.508;-122.806;2022-11-02T00:37:04;3.70;;;3.17;;
50851;SDS011;43953;45.508;-122.806;2022-11-02T00:37:36;4.00;;;3.58;;
50851;SDS011;43953;45.508;-122.806;2022-11-02T00:38:08;3.42;;;3.13;;
50851;SDS011;43953;45.508;-122.806;2022-11-02T00:38:39;3.65;;;3.13;;
50851;SDS011;43953;45.508;-122.806;2022-11-02T00:39:11;3.95;;;3.03;;
50851;SDS011;43953;45.508;-122.806;2022-11-02T00:39:43;3.70;;;2.65;;
50851;SDS011;43953;45.508;-122.806;2022-11-02T00:40:15;3.55;;;3.00;;
50851;SDS011;43953;45.508;-122.806;2022-11-02T00:40:47;3.75;;;2.88;;
50851;SDS011;43953;45.508;-122.806;2022-11-02T00:41:19;4.40;;;3.05;;
50851;SDS011;43953;45.508;-122.806;2022-11-02T00:41:51;4.90;;;3.38;;
50851;SDS011;43953;45.508;-122.806;2022-11-02T00:42:23;4.13;;;3.22;;
50851;SDS011;43953;45.508;-122.806;2022-11-02T00:42:55;5.13;;;3.05;;
50851;SDS011;43953;45.508;-122.806;2022-11-02T00:43:27;4.07;;;2.80;;
50851;SDS011;43953;45.508;-122.806;2022-11-02T00:43:58;4.35;;;3.33;;
50851;SDS011;43953;45.508;-122.806;2022-11-02T00:44:30;4.20;;;2.83;;
50851;SDS011;43953;45.508;-122.806;2022-11-02T00:45:02;3.88;;;2.80;;
50851;SDS011;43953;45.508;-122.806;2022-11-02T00:45:34;4.10;;;2.80;;
50851;SDS011;43953;45.508;-122.806;2022-11-02T00:46:06;3.28;;;2.92;;
50851;SDS011;43953;45.508;-122.806;2022-11-02T00:46:38;3.92;;;3.10;;
50851;SDS011;43953;45.508;-122.806;2022-11-02T00:47:10;3.13;;;2.63;;
50851;SDS011;43953;45.508;-122.806;2022-11-02T00:47:41;3.58;;;3.00;;
50851;SDS011;43953;45.508;-122.806;2022-11-02T00:48:13;3.28;;;2.97;;
50851;SDS011;43953;45.508;-122.806;2022-11-02T00:48:45;4.78;;;2.85;;
50851;SDS011;43953;45.508;-122.806;2022-11-02T00:49:17;4.20;;;2.80;;
50851;SDS011;43953;45.508;-122.806;2022-11-02T00:49:48;4.88;;;3.13;;
50851;SDS011;43953;45.508;-122.806;2022-11-02T00:50:20;3.60;;;3.13;;
50851;SDS011;43953;45.508;-122.806;2022-11-02T00:50:52;3.65;;;2.88;;
50851;SDS011;43953;45.508;-122.806;2022-11-02T00:51:24;2.90;;;2.58;;
50851;SDS011;43953;45.508;-122.806;2022-11-02T00:51:55;3.90;;;3.20;;
50851;SDS011;43953;45.508;-122.806;2022-11-02T00:52:27;3.30;;;2.72;;
50851;SDS011;43953;45.508;-122.806;2022-11-02T00:52:59;4.20;;;3.03;;
50851;SDS011;43953;45.508;-122.806;2022-11-02T00:53:31;3.17;;;2.75;;
50851;SDS011;43953;45.508;-122.806;2022-11-02T00:54:02;6.50;;;3.05;;
50851;SDS011;43953;45.508;-122.806;2022-11-02T00:54:34;3.42;;;2.92;;
50851;SDS011;43953;45.508;-122.806;2022-11-02T00:55:06;3.75;;;2.67;;
50851;SDS011;43953;45.508;-122.806;2022-11-02T00:55:39;3.00;;;2.70;;
50851;SDS011;43953;45.508;-122.806;2022-11-02T00:56:11;3.35;;;2.85;;
50851;SDS011;43953;45.508;-122.806;2022-11-02T00:56:42;3.00;;;2.70;;
50851;SDS011;43953;45.508;-122.806;2022-11-02T00:57:14;4.38;;;3.05;;
50851;SDS011;43953;45.508;-122.806;2022-11-02T00:57:46;3.28;;;2.53;;
50851;SDS011;43953;45.508;-122.806;2022-11-02T00:58:18;3.28;;;2.88;;
50851;SDS011;43953;45.508;-122.806;2022-11-02T00:58:50;4.38;;;3.10;;
50851;SDS011;43953;45.508;-122.806;2022-11-02T00:59:21;4.55;;;2.80;;
50851;SDS011;43953;45.508;-122.806;2022-11-02T00:59:53;3.28;;;2.50;;
50851;SDS011;43953;45.508;-122.806;2022-11-02T01:00:25;3.25;;;2.60;;
50851;SDS011;43953;45.508;-122.806;2022-11-02T01:00:57;4.32;;;2.70;;
50851;SDS011;43953;45.508;-122.806;2022-11-02T01:01:29;4.20;;;3.03;;
50851;SDS011;43953;45.508;-122.806;2022-11-02T01:02:00;3.30;;;2.50;;
50851;SDS011;43953;45.508;-122.806;2022-11-02T01:02:33;3.75;;;3.05;;
50851;SDS011;43953;45.508;-122.806;2022-11-02T01:03:04;3.85;;;3.00;;
50851;SDS011;43953;45.508;-122.806;2022-11-02T01:03:36;3.90;;;2.60;;
50851;SDS011;43953;45.508;-122.806;2022-11-02T01:04:08;3.03;;;2.72;;
50851;SDS011;43953;45.508;-122.806;2022-11-02T01:04:40;3.15;;;2.70;;
50851;SDS011;43953;45.508;-122.806;2022-11-02T01:05:11;3.75;;;2.90;;
50851;SDS011;43953;45.508;-122.806;2022-11-02T01:05:43;3.80;;;3.25;;
50851;SDS011;43953;45.508;-122.806;2022-11-02T01:06:15;4.43;;;2.78;;
50851;SDS011;43953;45.508;-122.806;2022-11-02T01:06:47;5.35;;;2.70;;
50851;SDS011;43953;45.508;-122.806;2022-11-02T01:07:19;3.95;;;2.90;;
50851;SDS011;43953;45.508;-122.806;2022-11-02T01:07:51;2.83;;;2.45;;
50851;SDS011;43953;45.508;-122.806;2022-11-02T01:08:22;6.25;;;2.78;;
50851;SDS011;43953;45.508;-122.806;2022-11-02T01:08:54;3.22;;;2.80;;
50851;SDS011;43953;45.508;-122.806;2022-11-02T01:09:26;3.47;;;2.70;;
50851;SDS011;43953;45.508;-122.806;2022-11-02T01:09:58;3.40;;;2.70;;
50851;SDS011;43953;45.508;-122.806;2022-11-02T01:10:29;3.40;;;2.55;;
50851;SDS011;43953;45.508;-122.806;2022-11-02T01:11:15;2.67;;;2.47;;
50851;SDS011;43953;45.508;-122.806;2022-11-02T01:11:48;2.88;;;2.50;;
50851;SDS011;43953;45.508;-122.806;2022-11-02T01:12:20;3.20;;;2.80;;
50851;SDS011;43953;45.508;-122.806;2022-11-02T01:12:52;4.20;;;2.55;;
50851;SDS011;43953;45.508;-122.806;2022-11-02T01:13:23;3.33;;;2.70;;
50851;SDS011;43953;45.508;-122.806;2022-11-02T01:13:55;3.20;;;2.83;;
50851;SDS011;43953;45.508;-122.806;2022-11-02T01:14:27;3.35;;;2.42;;
50851;SDS011;43953;45.508;-122.806;2022-11-02T01:14:59;3.50;;;2.85;;
50851;SDS011;43953;45.508;-122.806;2022-11-02T01:15:30;2.90;;;2.60;;
50851;SDS011;43953;45.508;-122.806;2022-11-02T01:16:03;3.55;;;2.50;;
50851;SDS011;43953;45.508;-122.806;2022-11-02T01:16:35;3.05;;;2.40;;
50851;SDS011;43953;45.508;-122.806;2022-11-02T01:17:08;3.07;;;2.63;;
50851;SDS011;43953;45.508;-122.806;2022-11-02T01:17:40;3.58;;;2.85;;
50851;SDS011;43953;45.508;-122.806;2022-11-02T01:18:12;6.18;;;2.70;;
50851;SDS011;43953;45.508;-122.806;2022-11-02T01:18:43;2.85;;;2.50;;
50851;SDS011;43953;45.508;-122.806;2022-11-02T01:19:15;3.10;;;2.80;;
50851;SDS011;43953;45.508;-122.806;2022-11-02T01:19:48;3.65;;;2.90;;
50851;SDS011;43953;45.508;-122.806;2022-11-02T01:20:21;3.00;;;2.63;;
50851;SDS011;43953;45.508;-122.806;2022-11-02T01:20:56;3.03;;;2.47;;
50851;SDS011;43953;45.508;-122.806;2022-11-02T01:21:28;3.08;;;2.53;;
50851;SDS011;43953;45.508;-122.806;2022-11-02T01:22:00;3.75;;;2.70;;
50851;SDS011;43953;45.508;-122.806;2022-11-02T01:22:31;2.78;;;2.47;;
50851;SDS011;43953;45.508;-122.806;2022-11-02T01:23:05;2.80;;;2.50;;
50851;SDS011;43953;45.508;-122.806;2022-11-02T01:23:37;3.53;;;2.60;;
50851;SDS011;43953;45.508;-122.806;2022-11-02T01:24:09;4.18;;;2.60;;
50851;SDS011;43953;45.508;-122.806;2022-11-02T01:24:41;3.53;;;2.45;;
50851;SDS011;43953;45.508;-122.806;2022-11-02T01:25:12;3.97;;;2.40;;
50851;SDS011;43953;45.508;-122.806;2022-11-02T01:25:44;3.45;;;2.80;;
50851;SDS011;43953;45.508;-122.806;2022-11-02T01:26:16;3.60;;;2.70;;
50851;SDS011;43953;45.508;-122.806;2022-11-02T01:26:50;2.70;;;2.40;;
50851;SDS011;43953;45.508;-122.806;2022-11-02T01:27:22;3.65;;;2.50;;
50851;SDS011;43953;45.508;-122.806;2022-11-02T01:27:54;4.10;;;2.70;;
50851;SDS011;43953;45.508;-122.806;2022-11-02T01:28:26;3.65;;;2.42;;
50851;SDS011;43953;45.508;-122.806;2022-11-02T01:28:57;2.40;;;2.20;;
50851;SDS011;43953;45.508;-122.806;2022-11-02T01:29:29;2.65;;;2.20;;
50851;SDS011;43953;45.508;-122.806;2022-11-02T01:30:02;3.15;;;2.67;;
50851;SDS011;43953;45.508;-122.806;2022-11-02T01:30:36;2.80;;;2.38;;
50851;SDS011;43953;45.508;-122.806;2022-11-02T01:31:09;3.10;;;2.40;;
50851;SDS011;43953;45.508;-122.806;2022-11-02T01:31:41;2.75;;;2.28;;
50851;SDS011;43953;45.508;-122.806;2022-11-02T01:32:13;3.72;;;2.45;;
50851;SDS011;43953;45.508;-122.806;2022-11-02T01:32:45;2.60;;;2.40;;
50851;SDS011;43953;45.508;-122.806;2022-11-02T01:33:16;3.25;;;2.42;;
50851;SDS011;43953;45.508;-122.806;2022-11-02T01:33:48;2.53;;;2.33;;
50851;SDS011;43953;45.508;-122.806;2022-11-02T01:34:20;2.50;;;2.22;;
50851;SDS011;43953;45.508;-122.806;2022-11-02T01:35:26;2.95;;;2.40;;
50851;SDS011;43953;45.508;-122.806;2022-11-02T01:36:01;3.83;;;2.30;;
50851;SDS011;43953;45.508;-122.806;2022-11-02T01:36:34;2.33;;;2.13;;
50851;SDS011;43953;45.508;-122.806;2022-11-02T01:37:06;4.35;;;2.65;;
50851;SDS011;43953;45.508;-122.806;2022-11-02T01:37:38;2.30;;;2.10;;
50851;SDS011;43953;45.508;-122.806;2022-11-02T01:38:09;2.95;;;2.58;;
50851;SDS011;43953;45.508;-122.806;2022-11-02T01:38:41;2.40;;;2.20;;
50851;SDS011;43953;45.508;-122.806;2022-11-02T01:39:13;2.95;;;2.20;;
50851;SDS011;43953;45.508;-122.806;2022-11-02T01:39:46;3.88;;;2.65;;
50851;SDS011;43953;45.508;-122.806;2022-11-02T01:40:17;3.88;;;2.33;;
50851;SDS011;43953;45.508;-122.806;2022-11-02T01:40:49;3.65;;;2.60;;
50851;SDS011;43953;45.508;-122.806;2022-11-02T01:41:21;3.00;;;2.70;;
50851;SDS011;43953;45.508;-122.806;2022-11-02T01:41:53;2.40;;;2.20;;
50851;SDS011;43953;45.508;-122.806;2022-11-02T01:42:25;2.97;;;2.60;;
50851;SDS011;43953;45.508;-122.806;2022-11-02T01:42:58;2.63;;;2.15;;
50851;SDS011;43953;45.508;-122.806;2022-11-02T01:43:31;3.70;;;2.65;;
50851;SDS011;43953;45.508;-122.806;2022-11-02T01:44:04;3.22;;;2.58;;
50851;SDS011;43953;45.508;-122.806;2022-11-02T01:44:59;3.50;;;2.47;;
50851;SDS011;43953;45.508;-122.806;2022-11-02T01:45:34;2.42;;;2.10;;
50851;SDS011;43953;45.508;-122.806;2022-11-02T01:46:40;3.95;;;2.42;;
50851;SDS011;43953;45.508;-122.806;2022-11-02T01:47:23;3.08;;;2.70;;
50851;SDS011;43953;45.508;-122.806;2022-11-02T01:47:58;3.33;;;2.78;;
50851;SDS011;43953;45.508;-122.806;2022-11-02T01:48:31;3.67;;;2.70;;
50851;SDS011;43953;45.508;-122.806;2022-11-02T01:49:11;2.60;;;2.40;;
50851;SDS011;43953;45.508;-122.806;2022-11-02T01:49:47;2.60;;;2.35;;
50851;SDS011;43953;45.508;-122.806;2022-11-02T01:50:24;2.50;;;2.30;;
50851;SDS011;43953;45.508;-122.806;2022-11-02T01:50:58;2.60;;;2.10;;
50851;SDS011;43953;45.508;-122.806;2022-11-02T01:51:34;2.40;;;2.10;;
50851;SDS011;43953;45.508;-122.806;2022-11-02T01:52:10;3.42;;;2.67;;
50851;SDS011;43953;45.508;-122.806;2022-11-02T01:52:51;2.95;;;2.40;;
50851;SDS011;43953;45.508;-122.806;2022-11-02T01:53:24;3.17;;;2.50;;
50851;SDS011;43953;45.508;-122.806;2022-11-02T01:53:56;2.45;;;2.20;;
50851;SDS011;43953;45.508;-122.806;2022-11-02T01:54:39;4.50;;;2.60;;
50851;SDS011;43953;45.508;-122.806;2022-11-02T01:55:49;3.17;;;2.33;;
50851;SDS011;43953;45.508;-122.806;2022-11-02T01:56:22;2.70;;;2.20;;
50851;SDS011;43953;45.508;-122.806;2022-11-02T01:57:01;5.50;;;2.80;;
50851;SDS011;43953;45.508;-122.806;2022-11-02T01:57:35;3.35;;;2.42;;
50851;SDS011;43953;45.508;-122.806;2022-11-02T01:58:10;3.65;;;2.42;;
50851;SDS011;43953;45.508;-122.806;2022-11-02T01:58:43;2.53;;;2.03;;
50851;SDS011;43953;45.508;-122.806;2022-11-02T01:59:20;2.83;;;2.50;;
50851;SDS011;43953;45.508;-122.806;2022-11-02T02:00:08;3.08;;;2.25;;
50851;SDS011;43953;45.508;-122.806;2022-11-02T02:00:42;3.50;;;2.53;;
50851;SDS011;43953;45.508;-122.806;2022-11-02T02:01:14;3.58;;;2.95;;
50851;SDS011;43953;45.508;-122.806;2022-11-02T02:01:47;2.45;;;2.20;;
50851;SDS011;43953;45.508;-122.806;2022-11-02T02:02:20;3.63;;;2.40;;
50851;SDS011;43953;45.508;-122.806;2022-11-02T02:03:05;3.17;;;2.50;;
50851;SDS011;43953;45.508;-122.806;2022-11-02T02:03:42;4.30;;;2.83;;
50851;SDS011;43953;45.508;-122.806;2022-11-02T02:04:16;3.58;;;2.55;;
50851;SDS011;43953;45.508;-122.806;2022-11-02T02:04:49;3.08;;;2.55;;
50851;SDS011;43953;45.508;-122.806;2022-11-02T02:05:24;2.70;;;2.50;;
50851;SDS011;43953;45.508;-122.806;2022-11-02T02:05:58;2.97;;;2.40;;
50851;SDS011;43953;45.508;-122.806;2022-11-02T02:06:36;2.70;;;2.42;;
50851;SDS011;43953;45.508;-122.806;2022-11-02T02:07:09;3.63;;;2.58;;
50851;SDS011;43953;45.508;-122.806;2022-11-02T02:07:43;3.03;;;2.50;;
50851;SDS011;43953;45.508;-122.806;2022-11-02T02:08:17;3.55;;;2.70;;
50851;SDS011;43953;45.508;-122.806;2022-11-02T02:08:51;2.95;;;2.58;;
50851;SDS011;43953;45.508;-122.806;2022-11-02T02:09:25;2.92;;;2.35;;
50851;SDS011;43953;45.508;-122.806;2022-11-02T02:10:00;4.97;;;2.70;;
50851;SDS011;43953;45.508;-122.806;2022-11-02T02:10:33;4.18;;;2.80;;
50851;SDS011;43953;45.508;-122.806;2022-11-02T02:11:39;3.60;;;2.60;;
50851;SDS011;43953;45.508;-122.806;2022-11-02T02:12:07;3.45;;;2.85;;
50851;SDS011;43953;45.508;-122.806;2022-11-02T02:12:43;3.30;;;2.55;;
50851;SDS011;43953;45.508;-122.806;2022-11-02T02:13:15;3.15;;;2.85;;
50851;SDS011;43953;45.508;-122.806;2022-11-02T02:13:49;5.07;;;2.90;;
50851;SDS011;43953;45.508;-122.806;2022-11-02T02:14:21;3.15;;;2.70;;
50851;SDS011;43953;45.508;-122.806;2022-11-02T02:14:52;4.15;;;2.85;;
50851;SDS011;43953;45.508;-122.806;2022-11-02T02:15:26;3.05;;;2.75;;
50851;SDS011;43953;45.508;-122.806;2022-11-02T02:16:20;3.65;;;2.85;;
50851;SDS011;43953;45.508;-122.806;2022-11-02T02:18:06;4.53;;;3.10;;
50851;SDS011;43953;45.508;-122.806;2022-11-02T02:18:57;4.35;;;3.20;;
50851;SDS011;43953;45.508;-122.806;2022-11-02T02:19:41;4.43;;;3.20;;
50851;SDS011;43953;45.508;-122.806;2022-11-02T02:21:38;5.13;;;3.30;;
50851;SDS011;43953;45.508;-122.806;2022-11-02T02:28:18;3.92;;;3.40;;
50851;SDS011;43953;45.508;-122.806;2022-11-02T02:29:02;3.63;;;3.10;;
50851;SDS011;43953;45.508;-122.806;2022-11-02T02:30:15;3.72;;;3.13;;
50851;SDS011;43953;45.508;-122.806;2022-11-02T02:30:45;3.77;;;3.13;;
50851;SDS011;43953;45.508;-122.806;2022-11-02T02:32:12;3.78;;;3.03;;
50851;SDS011;43953;45.508;-122.806;2022-11-02T02:33:32;3.70;;;3.10;;
50851;SDS011;43953;45.508;-122.806;2022-11-02T02:34:18;4.32;;;3.05;;
50851;SDS011;43953;45.508;-122.806;2022-11-02T02:34:57;4.68;;;3.05;;
50851;SDS011;43953;45.508;-122.806;2022-11-02T02:36:30;6.00;;;3.47;;
50851;SDS011;43953;45.508;-122.806;2022-11-02T02:37:17;3.63;;;3.33;;
50851;SDS011;43953;45.508;-122.806;2022-11-02T02:38:11;4.47;;;3.05;;
50851;SDS011;43953;45.508;-122.806;2022-11-02T02:38:48;4.25;;;3.00;;
50851;SDS011;43953;45.508;-122.806;2022-11-02T02:39:35;3.63;;;3.00;;
50851;SDS011;43953;45.508;-122.806;2022-11-02T02:40:25;4.35;;;3.30;;
50851;SDS011;43953;45.508;-122.806;2022-11-02T02:41:13;3.90;;;3.25;;
50851;SDS011;43953;45.508;-122.806;2022-11-02T02:42:55;3.63;;;3.10;;
50851;SDS011;43953;45.508;-122.806;2022-11-02T02:43:45;4.85;;;3.03;;
50851;SDS011;43953;45.508;-122.806;2022-11-02T02:44:24;3.72;;;3.22;;
50851;SDS011;43953;45.508;-122.806;2022-11-02T02:45:10;4.47;;;3.20;;
50851;SDS011;43953;45.508;-122.806;2022-11-02T02:45:54;4.13;;;3.50;;
50851;SDS011;43953;45.508;-122.806;2022-11-02T02:46:41;8.95;;;3.40;;
50851;SDS011;43953;45.508;-122.806;2022-11-02T02:47:17;4.10;;;2.80;;
50851;SDS011;43953;45.508;-122.806;2022-11-02T02:47:56;3.45;;;2.88;;
50851;SDS011;43953;45.508;-122.806;2022-11-02T02:48:36;3.10;;;2.80;;
50851;SDS011;43953;45.508;-122.806;2022-11-02T02:49:12;3.45;;;2.78;;
50851;SDS011;43953;45.508;-122.806;2022-11-02T02:50:36;3.00;;;2.70;;
50851;SDS011;43953;45.508;-122.806;2022-11-02T02:50:50;3.33;;;2.78;;
50851;SDS011;43953;45.508;-122.806;2022-11-02T02:51:29;3.55;;;3.05;;
50851;SDS011;43953;45.508;-122.806;2022-11-02T02:52:03;3.08;;;2.78;;
50851;SDS011;43953;45.508;-122.806;2022-11-02T02:52:36;4.20;;;3.15;;
50851;SDS011;43953;45.508;-122.806;2022-11-02T02:53:10;3.55;;;2.58;;
50851;SDS011;43953;45.508;-122.806;2022-11-02T02:53:45;2.45;;;2.25;;
50851;SDS011;43953;45.508;-122.806;2022-11-02T02:54:20;3.95;;;2.28;;
50851;SDS011;43953;45.508;-122.806;2022-11-02T02:55:00;4.00;;;2.50;;
50851;SDS011;43953;45.508;-122.806;2022-11-02T02:55:37;2.97;;;2.33;;
50851;SDS011;43953;45.508;-122.806;2022-11-02T02:56:14;3.40;;;2.28;;
50851;SDS011;43953;45.508;-122.806;2022-11-02T02:56:50;3.13;;;2.25;;
50851;SDS011;43953;45.508;-122.806;2022-11-02T02:57:30;2.85;;;2.28;;
50851;SDS011;43953;45.508;-122.806;2022-11-02T02:58:05;2.85;;;2.17;;
50851;SDS011;43953;45.508;-122.806;2022-11-02T03:00:03;2.70;;;2.50;;
50851;SDS011;43953;45.508;-122.806;2022-11-02T03:00:35;3.53;;;2.13;;
50851;SDS011;43953;45.508;-122.806;2022-11-02T03:01:09;3.25;;;2.17;;
50851;SDS011;43953;45.508;-122.806;2022-11-02T03:01:43;3.05;;;2.30;;
50851;SDS011;43953;45.508;-122.806;2022-11-02T03:02:18;2.58;;;2.28;;
50851;SDS011;43953;45.508;-122.806;2022-11-02T03:02:55;2.30;;;2.03;;
50851;SDS011;43953;45.508;-122.806;2022-11-02T03:03:31;2.97;;;2.28;;
50851;SDS011;43953;45.508;-122.806;2022-11-02T03:04:04;3.63;;;2.20;;
50851;SDS011;43953;45.508;-122.806;2022-11-02T03:04:36;2.42;;;2.22;;
50851;SDS011;43953;45.508;-122.806;2022-11-02T03:05:21;2.47;;;2.28;;
50851;SDS011;43953;45.508;-122.806;2022-11-02T03:06:17;3.97;;;2.35;;
50851;SDS011;43953;45.508;-122.806;2022-11-02T03:07:05;3.20;;;2.38;;
50851;SDS011;43953;45.508;-122.806;2022-11-02T03:07:40;2.42;;;2.05;;
50851;SDS011;43953;45.508;-122.806;2022-11-02T03:08:13;2.50;;;2.30;;
50851;SDS011;43953;45.508;-122.806;2022-11-02T03:09:21;2.88;;;2.20;;
50851;SDS011;43953;45.508;-122.806;2022-11-02T03:10:38;2.80;;;2.15;;
50851;SDS011;43953;45.508;-122.806;2022-11-02T03:11:56;2.42;;;2.05;;
50851;SDS011;43953;45.508;-122.806;2022-11-02T03:15:17;2.38;;;2.00;;
50851;SDS011;43953;45.508;-122.806;2022-11-02T03:20:18;2.65;;;2.00;;
50851;SDS011;43953;45.508;-122.806;2022-11-02T03:21:04;2.47;;;1.90;;
50851;SDS011;43953;45.508;-122.806;2022-11-02T03:21:41;3.25;;;1.88;;
50851;SDS011;43953;45.508;-122.806;2022-11-02T03:22:25;3.65;;;2.17;;
50851;SDS011;43953;45.508;-122.806;2022-11-02T03:23:15;3.47;;;1.85;;
50851;SDS011;43953;45.508;-122.806;2022-11-02T03:24:08;2.20;;;1.98;;
50851;SDS011;43953;45.508;-122.806;2022-11-02T03:24:51;2.53;;;1.80;;
50851;SDS011;43953;45.508;-122.806;2022-11-02T03:26:08;2.67;;;2.03;;
50851;SDS011;43953;45.508;-122.806;2022-11-02T03:27:40;3.25;;;2.45;;
50851;SDS011;43953;45.508;-122.806;2022-11-02T03:28:33;2.38;;;2.17;;
50851;SDS011;43953;45.508;-122.806;2022-11-02T03:30:13;2.50;;;2.22;;
50851;SDS011;43953;45.508;-122.806;2022-11-02T03:31:01;2.97;;;2.10;;
50851;SDS011;43953;45.508;-122.806;2022-11-02T03:31:52;4.53;;;2.72;;
50851;SDS011;43953;45.508;-122.806;2022-11-02T03:33:21;2.80;;;2.55;;
50851;SDS011;43953;45.508;-122.806;2022-11-02T03:34:23;3.92;;;2.80;;
50851;SDS011;43953;45.508;-122.806;2022-11-02T03:34:58;2.75;;;2.40;;
50851;SDS011;43953;45.508;-122.806;2022-11-02T03:36:20;2.80;;;2.60;;
50851;SDS011;43953;45.508;-122.806;2022-11-02T03:38:34;3.00;;;2.55;;
50851;SDS011;43953;45.508;-122.806;2022-11-02T03:39:08;3.13;;;2.45;;
50851;SDS011;43953;45.508;-122.806;2022-11-02T03:39:43;4.55;;;2.45;;
50851;SDS011;43953;45.508;-122.806;2022-11-02T03:40:20;3.22;;;2.58;;
50851;SDS011;43953;45.508;-122.806;2022-11-02T03:41:00;2.83;;;2.40;;
50851;SDS011;43953;45.508;-122.806;2022-11-02T03:41:34;2.40;;;2.20;;
50851;SDS011;43953;45.508;-122.806;2022-11-02T03:42:11;2.75;;;2.20;;
50851;SDS011;43953;45.508;-122.806;2022-11-02T03:42:46;2.50;;;2.25;;
50851;SDS011;43953;45.508;-122.806;2022-11-02T03:43:21;3.03;;;2.30;;
50851;SDS011;43953;45.508;-122.806;2022-11-02T03:43:57;2.42;;;2.22;;
50851;SDS011;43953;45.508;-122.806;2022-11-02T03:44:40;3.45;;;2.35;;
50851;SDS011;43953;45.508;-122.806;2022-11-02T03:45:17;2.75;;;2.30;;
50851;SDS011;43953;45.508;-122.806;2022-11-02T03:45:53;3.25;;;2.70;;
50851;SDS011;43953;45.508;-122.806;2022-11-02T03:46:28;2.78;;;2.55;;
50851;SDS011;43953;45.508;-122.806;2022-11-02T03:47:04;3.08;;;2.53;;
50851;SDS011;43953;45.508;-122.806;2022-11-02T03:47:41;2.92;;;2.30;;
50851;SDS011;43953;45.508;-122.806;2022-11-02T03:48:17;3.08;;;2.58;;
50851;SDS011;43953;45.508;-122.806;2022-11-02T03:48:51;2.97;;;2.60;;
50851;SDS011;43953;45.508;-122.806;2022-11-02T03:49:26;2.85;;;2.28;;
50851;SDS011;43953;45.508;-122.806;2022-11-02T03:50:00;3.40;;;2.50;;
50851;SDS011;43953;45.508;-122.806;2022-11-02T03:50:36;2.95;;;2.53;;
50851;SDS011;43953;45.508;-122.806;2022-11-02T03:51:10;2.80;;;2.60;;
50851;SDS011;43953;45.508;-122.806;2022-11-02T03:51:45;3.05;;;2.50;;
50851;SDS011;43953;45.508;-122.806;2022-11-02T03:52:20;2.60;;;2.40;;